createdAt,value
2018-06-30T00:00:24.586Z,0
2018-06-30T00:01:34.442Z,0
2018-06-30T00:02:44.495Z,0
2018-06-30T00:03:54.617Z,0
2018-06-30T00:05:04.421Z,0
2018-06-30T00:06:14.498Z,0
2018-06-30T00:07:24.604Z,0
2018-06-30T00:08:34.645Z,0
2018-06-30T00:09:44.720Z,0
2018-06-30T00:10:54.526Z,0
2018-06-30T00:12:04.337Z,0
2018-06-30T00:13:14.169Z,0
2018-06-30T00:14:24.223Z,0
2018-06-30T00:15:34.011Z,0
2018-06-30T00:16:44.080Z,0
2018-06-30T00:17:53.609Z,0
2018-06-30T00:19:03.467Z,0
2018-06-30T00:20:13.270Z,0
2018-06-30T00:21:23.334Z,0
2018-06-30T00:22:33.397Z,0
2018-06-30T00:23:43.180Z,0
2018-06-30T00:24:53.026Z,0
2018-06-30T00:26:03.091Z,0
2018-06-30T00:27:12.900Z,0
2018-06-30T00:28:22.971Z,0
2018-06-30T00:29:32.782Z,0
2018-06-30T00:30:42.911Z,0
2018-06-30T00:31:52.707Z,0
2018-06-30T00:33:02.768Z,0
2018-06-30T00:34:12.581Z,0
2018-06-30T00:35:22.633Z,0
2018-06-30T00:36:32.475Z,0
2018-06-30T00:37:42.557Z,0
2018-06-30T00:38:52.612Z,0
2018-06-30T00:40:02.684Z,0
2018-06-30T00:41:12.205Z,0
2018-06-30T00:42:21.780Z,0
2018-06-30T00:43:31.837Z,0
2018-06-30T00:44:41.363Z,0
2018-06-30T00:45:51.432Z,0
2018-06-30T00:47:00.958Z,0
2018-06-30T00:48:10.792Z,0
2018-06-30T00:49:20.861Z,0
2018-06-30T00:50:30.924Z,0
2018-06-30T00:51:40.722Z,0
2018-06-30T00:52:50.249Z,0
2018-06-30T00:54:00.092Z,0
2018-06-30T00:55:09.898Z,0
2018-06-30T00:56:19.942Z,0
2018-06-30T00:57:29.729Z,0
2018-06-30T00:58:39.531Z,0
2018-06-30T00:59:49.631Z,0
2018-06-30T01:00:59.708Z,0
2018-06-30T01:02:09.236Z,0
2018-06-30T01:03:18.770Z,0
2018-06-30T01:04:28.835Z,0
2018-06-30T01:05:38.412Z,0
2018-06-30T01:06:47.918Z,0
2018-06-30T01:07:57.979Z,0
2018-06-30T01:09:08.048Z,0
2018-06-30T01:10:17.834Z,0
2018-06-30T01:11:27.940Z,0
2018-06-30T01:12:37.744Z,0
2018-06-30T01:13:47.800Z,0
2018-06-30T01:14:57.868Z,0
2018-06-30T01:16:07.940Z,0
2018-06-30T01:17:17.529Z,0
2018-06-30T01:18:27.334Z,0
2018-06-30T01:19:37.400Z,0
2018-06-30T01:20:47.193Z,0
2018-06-30T01:21:57.243Z,0
2018-06-30T01:23:07.348Z,0
2018-06-30T01:24:17.393Z,0
2018-06-30T01:25:26.903Z,0
2018-06-30T01:26:36.972Z,0
2018-06-30T01:27:46.516Z,0
2018-06-30T01:28:56.362Z,5
2018-06-30T01:30:06.422Z,5
2018-06-30T01:31:15.940Z,5
2018-06-30T01:32:25.736Z,5
2018-06-30T01:33:35.536Z,5
2018-06-30T01:34:45.375Z,5
2018-06-30T01:35:55.423Z,5
2018-06-30T01:37:04.686Z,5
2018-06-30T01:38:14.491Z,5
2018-06-30T01:39:24.540Z,5
2018-06-30T01:40:34.657Z,5
2018-06-30T01:41:44.173Z,5
2018-06-30T01:42:53.983Z,5
2018-06-30T01:44:03.791Z,5
2018-06-30T01:45:13.602Z,5
2018-06-30T01:46:23.177Z,10
2018-06-30T01:47:33.235Z,10
2018-06-30T01:48:43.029Z,10
2018-06-30T01:49:53.093Z,10
2018-06-30T01:51:02.873Z,10
2018-06-30T01:52:12.715Z,10
2018-06-30T01:53:22.791Z,10
2018-06-30T01:54:32.839Z,10
2018-06-30T01:55:42.905Z,10
2018-06-30T01:56:52.678Z,15
2018-06-30T01:58:02.789Z,15
2018-06-30T01:59:12.847Z,15
2018-06-30T02:00:22.932Z,15
2018-06-30T02:01:32.736Z,15
2018-06-30T02:02:42.299Z,15
2018-06-30T02:03:52.411Z,20
2018-06-30T02:05:02.480Z,20
2018-06-30T02:06:12.554Z,20
2018-06-30T02:07:22.084Z,25
2018-06-30T02:08:31.606Z,25
2018-06-30T02:09:41.710Z,25
2018-06-30T02:10:51.805Z,25
2018-06-30T02:12:01.881Z,25
2018-06-30T02:13:11.405Z,30
2018-06-30T02:14:21.468Z,30
2018-06-30T02:15:31.575Z,30
2018-06-30T02:16:41.113Z,30
2018-06-30T02:17:51.167Z,30
2018-06-30T02:19:00.974Z,35
2018-06-30T02:20:11.068Z,35
2018-06-30T02:21:20.628Z,35
2018-06-30T02:22:30.159Z,35
2018-06-30T02:23:40.222Z,35
2018-06-30T02:24:50.292Z,35
2018-06-30T02:26:00.356Z,35
2018-06-30T02:27:10.214Z,35
2018-06-30T02:28:19.999Z,35
2018-06-30T02:29:30.083Z,40
2018-06-30T02:30:39.874Z,40
2018-06-30T02:31:49.984Z,40
2018-06-30T02:33:00.105Z,40
2018-06-30T02:34:10.144Z,45
2018-06-30T02:35:20.218Z,45
2018-06-30T02:36:30.281Z,45
2018-06-30T02:37:40.340Z,45
2018-06-30T02:38:50.463Z,50
2018-06-30T02:40:00.545Z,50
2018-06-30T02:41:10.611Z,50
2018-06-30T02:42:20.413Z,50
2018-06-30T02:43:30.502Z,60
2018-06-30T02:44:40.639Z,55
2018-06-30T02:45:50.882Z,55
2018-06-30T02:47:00.404Z,55
2018-06-30T02:48:10.207Z,60
2018-06-30T02:49:20.011Z,60
2018-06-30T02:50:30.114Z,60
2018-06-30T02:51:40.173Z,60
2018-06-30T02:52:50.230Z,60
2018-06-30T02:54:00.034Z,65
2018-06-30T02:55:09.858Z,65
2018-06-30T02:56:19.981Z,65
2018-06-30T02:57:30.060Z,65
2018-06-30T02:58:39.580Z,70
2018-06-30T02:59:49.109Z,70
2018-06-30T03:03:38.615Z,75
2018-06-30T03:04:48.678Z,75
2018-06-30T03:05:58.742Z,75
2018-06-30T03:07:08.819Z,75
2018-06-30T03:08:18.639Z,80
2018-06-30T03:09:28.226Z,75
2018-06-30T03:10:38.074Z,80
2018-06-30T03:11:48.146Z,80
2018-06-30T03:12:58.222Z,80
2018-06-30T03:14:07.737Z,80
2018-06-30T03:15:17.839Z,80
2018-06-30T03:16:27.911Z,80
2018-06-30T03:17:37.713Z,80
2018-06-30T03:18:47.517Z,90
2018-06-30T03:19:57.032Z,85
2018-06-30T03:21:06.872Z,85
2018-06-30T03:22:16.682Z,85
2018-06-30T03:23:26.757Z,85
2018-06-30T03:24:36.844Z,90
2018-06-30T03:25:46.650Z,90
2018-06-30T03:26:56.501Z,90
2018-06-30T03:28:06.584Z,90
2018-06-30T03:29:16.690Z,90
2018-06-30T03:30:26.747Z,95
2018-06-30T03:31:36.909Z,95
2018-06-30T03:32:47.138Z,95
2018-06-30T03:33:57.211Z,95
2018-06-30T03:35:07.276Z,95
2018-06-30T03:36:17.360Z,100
2018-06-30T03:37:27.150Z,100
2018-06-30T03:38:37.639Z,100
2018-06-30T03:39:47.485Z,100
2018-06-30T03:40:57.536Z,100
2018-06-30T03:42:07.634Z,105
2018-06-30T03:43:17.712Z,105
2018-06-30T03:44:27.868Z,105
2018-06-30T03:45:37.661Z,105
2018-06-30T03:46:47.736Z,110
2018-06-30T03:47:57.799Z,110
2018-06-30T03:49:07.594Z,110
2018-06-30T03:50:17.466Z,110
2018-06-30T03:51:27.532Z,110
2018-06-30T03:52:37.327Z,110
2018-06-30T03:53:47.399Z,115
2018-06-30T03:54:57.182Z,115
2018-06-30T03:56:07.302Z,110
2018-06-30T03:57:16.828Z,110
2018-06-30T03:58:26.898Z,110
2018-06-30T03:59:36.710Z,115
2018-06-30T04:00:46.526Z,115
2018-06-30T04:01:56.411Z,115
2018-06-30T04:03:06.195Z,115
2018-06-30T04:04:15.990Z,115
2018-06-30T04:05:25.784Z,115
2018-06-30T04:06:35.570Z,115
2018-06-30T04:07:45.706Z,120
2018-06-30T04:08:55.772Z,120
2018-06-30T04:10:05.831Z,120
2018-06-30T04:11:15.903Z,120
2018-06-30T04:12:25.966Z,120
2018-06-30T04:13:35.545Z,120
2018-06-30T04:14:45.625Z,120
2018-06-30T04:15:55.439Z,120
2018-06-30T04:17:04.961Z,125
2018-06-30T04:18:14.757Z,125
2018-06-30T04:19:24.605Z,125
2018-06-30T04:20:34.139Z,125
2018-06-30T04:21:43.394Z,125
2018-06-30T04:22:53.185Z,130
2018-06-30T04:24:03.256Z,130
2018-06-30T04:25:13.094Z,130
2018-06-30T04:26:23.150Z,130
2018-06-30T04:27:33.210Z,130
2018-06-30T04:28:43.285Z,130
2018-06-30T04:29:53.086Z,130
2018-06-30T04:31:02.942Z,130
2018-06-30T04:32:12.754Z,130
2018-06-30T04:33:22.284Z,130
2018-06-30T04:34:32.088Z,135
2018-06-30T04:35:41.623Z,135
2018-06-30T04:36:51.467Z,135
2018-06-30T04:38:01.258Z,135
2018-06-30T04:39:10.782Z,135
2018-06-30T04:40:20.842Z,135
2018-06-30T04:41:30.911Z,135
2018-06-30T04:42:40.748Z,135
2018-06-30T04:43:50.266Z,135
2018-06-30T04:45:00.340Z,135
2018-06-30T04:46:09.598Z,135
2018-06-30T04:47:19.418Z,135
2018-06-30T04:48:29.262Z,135
2018-06-30T04:49:39.329Z,135
2018-06-30T04:50:49.130Z,140
2018-06-30T04:51:59.209Z,140
2018-06-30T04:53:09.031Z,140
2018-06-30T04:54:18.874Z,140
2018-06-30T04:55:28.110Z,140
2018-06-30T04:56:38.196Z,140
2018-06-30T04:57:48.126Z,140
2018-06-30T04:58:58.186Z,140
2018-06-30T05:00:08.035Z,140
2018-06-30T05:01:18.090Z,140
2018-06-30T05:02:28.148Z,145
2018-06-30T05:03:37.936Z,145
2018-06-30T05:04:47.459Z,145
2018-06-30T05:05:57.591Z,145
2018-06-30T05:07:06.849Z,145
2018-06-30T05:08:16.929Z,145
2018-06-30T05:09:26.749Z,145
2018-06-30T05:10:36.806Z,145
2018-06-30T05:11:46.400Z,145
2018-06-30T05:12:56.827Z,145
2018-06-30T05:14:06.641Z,145
2018-06-30T05:15:16.723Z,145
2018-06-30T05:16:26.786Z,145
2018-06-30T05:17:36.634Z,145
2018-06-30T05:18:46.711Z,150
2018-06-30T05:19:56.826Z,150
2018-06-30T05:21:06.634Z,150
2018-06-30T05:22:16.427Z,150
2018-06-30T05:23:26.274Z,150
2018-06-30T05:24:36.077Z,150
2018-06-30T05:25:45.886Z,150
2018-06-30T05:26:55.706Z,150
2018-06-30T05:28:05.512Z,150
2018-06-30T05:29:15.628Z,150
2018-06-30T05:30:25.689Z,150
2018-06-30T05:31:35.745Z,150
2018-06-30T05:32:45.530Z,150
2018-06-30T05:33:55.322Z,150
2018-06-30T05:35:05.437Z,150
2018-06-30T05:36:15.256Z,150
2018-06-30T05:37:25.050Z,155
2018-06-30T05:38:35.122Z,155
2018-06-30T05:39:45.237Z,155
2018-06-30T05:40:55.350Z,155
2018-06-30T05:42:05.447Z,155
2018-06-30T05:43:15.245Z,155
2018-06-30T05:44:25.037Z,155
2018-06-30T05:45:34.575Z,155
2018-06-30T05:46:44.685Z,155
2018-06-30T05:47:54.759Z,155
2018-06-30T05:49:04.829Z,155
2018-06-30T05:50:14.622Z,160
2018-06-30T05:51:24.697Z,155
2018-06-30T05:52:34.811Z,155
2018-06-30T05:53:44.876Z,155
2018-06-30T05:54:54.670Z,155
2018-06-30T05:56:04.750Z,155
2018-06-30T05:57:14.535Z,155
2018-06-30T05:58:24.388Z,160
2018-06-30T05:59:34.406Z,160
2018-06-30T06:00:44.482Z,160
2018-06-30T06:01:54.011Z,160
2018-06-30T06:03:03.790Z,160
2018-06-30T06:04:13.640Z,160
2018-06-30T06:05:23.695Z,160
2018-06-30T06:06:33.218Z,160
2018-06-30T06:07:42.207Z,160
2018-06-30T06:08:52.327Z,160
2018-06-30T06:10:02.661Z,160
2018-06-30T06:11:12.441Z,160
2018-06-30T06:12:22.505Z,160
2018-06-30T06:13:32.588Z,160
2018-06-30T06:14:42.407Z,160
2018-06-30T06:15:52.243Z,160
2018-06-30T06:17:02.063Z,160
2018-06-30T06:18:11.315Z,160
2018-06-30T06:19:21.123Z,160
2018-06-30T06:20:30.920Z,160
2018-06-30T06:21:40.783Z,160
2018-06-30T06:22:50.304Z,160
2018-06-30T06:24:00.114Z,160
2018-06-30T06:25:09.656Z,160
2018-06-30T06:26:19.719Z,160
2018-06-30T06:27:29.795Z,160
2018-06-30T06:28:39.888Z,160
2018-06-30T06:29:49.706Z,160
2018-06-30T06:30:59.784Z,160
2018-06-30T06:32:09.855Z,160
2018-06-30T06:33:19.971Z,160
2018-06-30T06:34:29.760Z,160
2018-06-30T06:35:39.830Z,160
2018-06-30T06:37:09.098Z,160
2018-06-30T06:38:19.514Z,160
2018-06-30T06:39:29.603Z,160
2018-06-30T06:40:39.987Z,160
2018-06-30T06:41:50.683Z,160
2018-06-30T06:43:00.260Z,160
2018-06-30T06:44:10.412Z,160
2018-06-30T06:45:20.236Z,165
2018-06-30T06:46:30.327Z,165
2018-06-30T06:47:40.390Z,165
2018-06-30T06:48:50.206Z,165
2018-06-30T06:49:59.786Z,165
2018-06-30T06:51:09.828Z,165
2018-06-30T06:52:19.426Z,165
2018-06-30T06:53:28.960Z,165
2018-06-30T06:54:38.496Z,165
2018-06-30T06:55:48.076Z,165
2018-06-30T06:56:57.888Z,165
2018-06-30T06:58:08.018Z,165
2018-06-30T06:59:17.829Z,165
2018-06-30T07:00:27.634Z,165
2018-06-30T07:01:37.554Z,165
2018-06-30T07:02:47.364Z,170
2018-06-30T07:03:57.443Z,170
2018-06-30T07:05:07.253Z,170
2018-06-30T07:06:16.793Z,170
2018-06-30T07:07:26.646Z,170
2018-06-30T07:08:36.425Z,170
2018-06-30T07:09:45.689Z,170
2018-06-30T07:10:55.755Z,170
2018-06-30T07:12:05.566Z,170
2018-06-30T07:13:15.138Z,170
2018-06-30T07:14:24.936Z,170
2018-06-30T07:15:34.477Z,170
2018-06-30T07:16:43.995Z,170
2018-06-30T07:17:53.805Z,170
2018-06-30T07:19:03.921Z,170
2018-06-30T07:20:13.977Z,170
2018-06-30T07:21:23.824Z,170
2018-06-30T07:22:33.997Z,170
2018-06-30T07:23:43.789Z,170
2018-06-30T07:24:53.653Z,175
2018-06-30T07:26:03.173Z,175
2018-06-30T07:27:12.699Z,175
2018-06-30T07:28:22.217Z,175
2018-06-30T07:29:32.325Z,175
2018-06-30T07:30:42.225Z,175
2018-06-30T07:31:51.526Z,175
2018-06-30T07:33:01.583Z,175
2018-06-30T07:34:11.448Z,175
2018-06-30T07:35:21.501Z,175
2018-06-30T07:36:31.654Z,175
2018-06-30T07:37:41.596Z,175
2018-06-30T07:38:51.659Z,175
2018-06-30T07:40:01.728Z,180
2018-06-30T07:41:11.538Z,175
2018-06-30T07:42:21.650Z,175
2018-06-30T07:43:31.440Z,175
2018-06-30T07:44:41.240Z,175
2018-06-30T07:45:50.777Z,180
2018-06-30T07:47:00.314Z,180
2018-06-30T07:48:10.458Z,180
2018-06-30T07:49:20.259Z,180
2018-06-30T07:50:30.031Z,180
2018-06-30T07:51:40.263Z,180
2018-06-30T07:52:50.342Z,185
2018-06-30T07:54:00.177Z,180
2018-06-30T07:55:10.263Z,180
2018-06-30T07:56:20.056Z,180
2018-06-30T07:57:29.609Z,180
2018-06-30T07:58:39.845Z,180
2018-06-30T07:59:49.703Z,180
2018-06-30T08:00:59.885Z,180
2018-06-30T08:02:09.371Z,180
2018-06-30T08:03:19.530Z,180
2018-06-30T08:04:29.062Z,180
2018-06-30T08:05:39.162Z,180
2018-06-30T08:06:48.960Z,180
2018-06-30T08:07:58.710Z,185
2018-06-30T08:09:08.793Z,185
2018-06-30T08:10:18.895Z,185
2018-06-30T08:11:29.023Z,185
2018-06-30T08:12:39.101Z,185
2018-06-30T08:13:49.259Z,185
2018-06-30T08:14:59.065Z,185
2018-06-30T08:16:08.885Z,185
2018-06-30T08:17:19.016Z,185
2018-06-30T08:18:29.093Z,185
2018-06-30T08:19:38.868Z,185
2018-06-30T08:20:48.920Z,185
2018-06-30T08:21:58.440Z,185
2018-06-30T08:23:08.562Z,185
2018-06-30T08:24:18.373Z,185
2018-06-30T08:25:27.901Z,185
2018-06-30T08:26:37.962Z,190
2018-06-30T08:27:48.023Z,190
2018-06-30T08:28:58.162Z,190
2018-06-30T08:30:07.712Z,190
2018-06-30T08:31:17.795Z,190
2018-06-30T08:32:27.604Z,190
2018-06-30T08:33:37.676Z,190
2018-06-30T08:34:47.544Z,190
2018-06-30T08:35:57.338Z,190
2018-06-30T08:37:07.136Z,190
2018-06-30T08:38:17.215Z,190
2018-06-30T08:39:26.994Z,190
2018-06-30T08:40:37.115Z,190
2018-06-30T08:41:47.249Z,190
2018-06-30T08:42:57.064Z,190
2018-06-30T08:44:06.605Z,190
2018-06-30T08:45:16.414Z,190
2018-06-30T08:46:26.531Z,190
2018-06-30T08:47:36.340Z,195
2018-06-30T08:48:46.142Z,195
2018-06-30T08:49:56.211Z,195
2018-06-30T08:51:05.792Z,195
2018-06-30T08:52:15.638Z,195
2018-06-30T08:53:25.457Z,195
2018-06-30T08:54:35.243Z,195
2018-06-30T08:55:45.647Z,195
2018-06-30T08:56:55.904Z,195
2018-06-30T08:58:05.460Z,195
2018-06-30T08:59:15.246Z,195
2018-06-30T09:00:25.315Z,195
2018-06-30T09:01:35.117Z,195
2018-06-30T09:02:44.914Z,195
2018-06-30T09:03:54.763Z,195
2018-06-30T09:05:04.569Z,195
2018-06-30T09:06:14.182Z,200
2018-06-30T09:07:23.992Z,205
2018-06-30T09:08:33.780Z,200
2018-06-30T09:09:43.633Z,200
2018-06-30T09:10:53.936Z,200
2018-06-30T09:12:04.196Z,195
2018-06-30T09:13:14.354Z,200
2018-06-30T09:14:23.893Z,200
2018-06-30T09:15:33.731Z,200
2018-06-30T09:16:43.798Z,200
2018-06-30T09:17:53.870Z,200
2018-06-30T09:19:03.922Z,205
2018-06-30T09:20:14.128Z,205
2018-06-30T09:21:23.973Z,205
2018-06-30T09:22:33.756Z,205
2018-06-30T09:23:43.854Z,205
2018-06-30T09:24:53.123Z,205
2018-06-30T09:26:03.207Z,205
2018-06-30T09:27:13.354Z,205
2018-06-30T09:28:23.152Z,205
2018-06-30T09:29:32.962Z,205
2018-06-30T09:30:42.768Z,205
2018-06-30T09:31:52.841Z,205
2018-06-30T09:33:02.964Z,205
2018-06-30T09:34:12.775Z,210
2018-06-30T09:35:22.852Z,210
2018-06-30T09:36:32.667Z,210
2018-06-30T09:37:42.464Z,210
2018-06-30T09:38:51.774Z,210
2018-06-30T09:40:01.841Z,210
2018-06-30T09:41:11.908Z,210
2018-06-30T09:42:21.423Z,215
2018-06-30T09:43:30.963Z,210
2018-06-30T09:44:41.010Z,210
2018-06-30T09:45:51.102Z,210
2018-06-30T09:47:01.183Z,210
2018-06-30T09:48:10.729Z,210
2018-06-30T09:49:20.817Z,215
2018-06-30T09:50:30.676Z,215
2018-06-30T09:51:40.479Z,215
2018-06-30T09:52:49.993Z,215
2018-06-30T09:53:59.521Z,215
2018-06-30T09:55:09.052Z,215
2018-06-30T09:56:18.913Z,215
2018-06-30T09:57:29.038Z,215
2018-06-30T09:58:38.820Z,215
2018-06-30T09:59:48.877Z,215
2018-06-30T10:00:58.673Z,215
2018-06-30T10:02:08.529Z,215
2018-06-30T10:03:18.353Z,220
2018-06-30T10:04:28.423Z,220
2018-06-30T10:05:38.483Z,220
2018-06-30T10:06:48.701Z,220
2018-06-30T10:07:58.525Z,220
2018-06-30T10:09:08.522Z,220
2018-06-30T10:10:18.614Z,220
2018-06-30T10:11:28.415Z,220
2018-06-30T10:12:38.363Z,220
2018-06-30T10:13:47.683Z,220
2018-06-30T10:14:57.745Z,220
2018-06-30T10:16:07.290Z,220
2018-06-30T10:17:17.352Z,225
2018-06-30T10:18:27.425Z,225
2018-06-30T10:19:37.589Z,230
2018-06-30T10:20:47.405Z,225
2018-06-30T10:21:57.579Z,225
2018-06-30T10:23:07.655Z,225
2018-06-30T10:24:17.457Z,230
2018-06-30T10:25:27.575Z,225
2018-06-30T10:26:37.666Z,225
2018-06-30T10:27:47.736Z,225
2018-06-30T10:28:57.536Z,225
2018-06-30T10:30:07.601Z,225
2018-06-30T10:31:17.897Z,230
2018-06-30T10:32:28.019Z,230
2018-06-30T10:33:37.821Z,230
2018-06-30T10:34:47.899Z,230
2018-06-30T10:35:58.002Z,230
2018-06-30T10:37:07.851Z,230
2018-06-30T10:38:17.670Z,230
2018-06-30T10:39:27.215Z,230
2018-06-30T10:40:37.037Z,230
2018-06-30T10:41:46.837Z,230
2018-06-30T10:42:56.682Z,230
2018-06-30T10:44:06.497Z,230
2018-06-30T10:45:15.773Z,235
2018-06-30T10:46:25.857Z,235
2018-06-30T10:47:35.943Z,235
2018-06-30T10:48:46.051Z,235
2018-06-30T10:49:56.116Z,235
2018-06-30T10:51:06.198Z,235
2018-06-30T10:52:16.258Z,235
2018-06-30T10:53:26.320Z,235
2018-06-30T10:54:36.454Z,235
2018-06-30T10:55:46.254Z,235
2018-06-30T10:56:55.782Z,235
2018-06-30T10:58:05.571Z,235
2018-06-30T10:59:15.412Z,240
2018-06-30T11:00:25.921Z,240
2018-06-30T11:01:35.995Z,240
2018-06-30T11:02:45.792Z,240
2018-06-30T11:03:55.377Z,240
2018-06-30T11:05:05.531Z,240
2018-06-30T11:06:15.403Z,240
2018-06-30T11:07:25.212Z,240
2018-06-30T11:08:35.275Z,240
2018-06-30T11:09:45.084Z,240
2018-06-30T11:10:54.687Z,240
2018-06-30T11:12:04.824Z,240
2018-06-30T11:13:14.897Z,245
2018-06-30T11:14:24.968Z,245
2018-06-30T11:15:34.824Z,250
2018-06-30T11:16:44.910Z,245
2018-06-30T11:17:55.036Z,245
2018-06-30T11:19:04.032Z,245
2018-06-30T11:20:14.506Z,250
2018-06-30T11:21:24.381Z,250
2018-06-30T11:22:34.204Z,250
2018-06-30T11:23:44.317Z,250
2018-06-30T11:24:54.424Z,250
2018-06-30T11:26:03.967Z,255
2018-06-30T11:27:14.028Z,255
2018-06-30T11:28:24.115Z,255
2018-06-30T11:29:34.414Z,255
2018-06-30T11:30:44.576Z,260
2018-06-30T11:31:54.376Z,255
2018-06-30T11:33:04.445Z,260
2018-06-30T11:34:14.249Z,265
2018-06-30T11:35:24.347Z,265
2018-06-30T11:36:34.139Z,265
2018-06-30T11:37:44.208Z,280
2018-06-30T11:38:53.744Z,385
2018-06-30T11:40:03.815Z,1730
2018-06-30T11:41:13.660Z,2945
2018-06-30T11:42:23.454Z,2840
2018-06-30T11:43:33.552Z,2695
2018-06-30T11:44:43.363Z,2815
2018-06-30T11:45:53.443Z,2905
2018-06-30T11:47:03.309Z,3235
2018-06-30T11:48:13.401Z,3175
2018-06-30T11:49:23.214Z,3045
2018-06-30T11:50:33.690Z,3115
2018-06-30T11:51:43.508Z,3265
2018-06-30T11:52:53.355Z,3295
2018-06-30T11:54:02.898Z,3200
2018-06-30T11:55:12.727Z,3285
2018-06-30T11:56:22.814Z,3310
2018-06-30T11:57:32.635Z,3155
2018-06-30T11:58:42.512Z,3150
2018-06-30T11:59:52.591Z,3045
2018-06-30T12:01:02.126Z,3055
2018-06-30T12:02:11.953Z,3230
2018-06-30T12:03:21.866Z,3020
2018-06-30T12:04:32.019Z,3030
2018-06-30T12:05:42.113Z,2960
2018-06-30T12:06:51.931Z,2835
2018-06-30T12:08:01.483Z,2735
2018-06-30T12:09:10.772Z,2880
2018-06-30T12:10:20.926Z,3070
2018-06-30T12:11:30.474Z,2995
2018-06-30T12:12:40.531Z,2795
2018-06-30T12:13:50.324Z,2685
2018-06-30T12:15:00.395Z,2645
2018-06-30T12:16:10.281Z,2745
2018-06-30T12:17:19.825Z,2805
2018-06-30T12:18:29.647Z,2995
2018-06-30T12:19:39.729Z,3115
2018-06-30T12:20:49.279Z,3065
2018-06-30T12:21:59.507Z,3230
2018-06-30T12:23:09.053Z,3350
2018-06-30T12:24:19.143Z,3230
2018-06-30T12:25:29.269Z,3170
2018-06-30T12:26:39.101Z,3345
2018-06-30T12:27:48.970Z,3095
2018-06-30T12:28:58.790Z,3005
2018-06-30T12:30:08.612Z,2920
2018-06-30T12:31:18.449Z,3135
2018-06-30T12:32:28.947Z,3310
2018-06-30T12:33:38.819Z,3095
2018-06-30T12:34:48.359Z,3065
2018-06-30T12:35:58.197Z,3115
2018-06-30T12:37:07.756Z,3015
2018-06-30T12:38:17.040Z,2700
2018-06-30T12:39:26.922Z,2985
2018-06-30T12:40:37.027Z,2950
2018-06-30T12:41:47.132Z,2910
2018-06-30T12:42:56.949Z,2835
2018-06-30T12:44:06.770Z,2980
2018-06-30T12:45:16.916Z,3065
2018-06-30T12:46:27.025Z,3105
2018-06-30T12:47:37.134Z,3030
2018-06-30T12:48:46.966Z,3195
2018-06-30T12:49:56.779Z,3140
2018-06-30T12:51:06.655Z,3125
2018-06-30T12:52:16.763Z,3000
2018-06-30T12:53:26.593Z,3005
2018-06-30T12:54:38.313Z,3050
2018-06-30T12:55:48.534Z,2980
2018-06-30T12:56:58.725Z,2855
2018-06-30T12:58:08.823Z,2830
2018-06-30T12:59:18.912Z,2825
2018-06-30T13:00:29.007Z,2630
2018-06-30T13:01:38.825Z,3000
2018-06-30T13:02:48.683Z,2805
2018-06-30T13:03:59.147Z,2660
2018-06-30T13:05:08.971Z,2650
2018-06-30T13:06:19.070Z,2665
2018-06-30T13:07:29.172Z,2525
2018-06-30T13:08:39.067Z,2340
2018-06-30T13:09:49.147Z,2155
2018-06-30T13:10:59.247Z,2120
2018-06-30T13:12:09.071Z,2025
2018-06-30T13:13:18.880Z,1980
2018-06-30T13:14:28.473Z,2040
2018-06-30T13:15:38.561Z,2050
2018-06-30T13:16:48.128Z,2050
2018-06-30T13:17:57.397Z,2365
2018-06-30T13:19:07.214Z,3050
2018-06-30T13:20:17.348Z,3255
2018-06-30T13:21:27.440Z,3290
2018-06-30T13:22:37.284Z,3530
2018-06-30T13:23:47.118Z,3870
2018-06-30T13:24:56.987Z,3760
2018-06-30T13:26:06.263Z,3710
2018-06-30T13:27:16.352Z,3915
2018-06-30T13:28:26.426Z,3820
2018-06-30T13:29:36.516Z,3575
2018-06-30T13:30:46.615Z,3660
2018-06-30T13:31:56.496Z,4000
2018-06-30T13:33:06.050Z,3975
2018-06-30T13:34:15.877Z,3645
2018-06-30T13:35:25.968Z,3685
2018-06-30T13:36:35.525Z,3930
2018-06-30T13:37:45.651Z,3920
2018-06-30T13:38:55.205Z,3985
2018-06-30T13:40:05.025Z,4370
2018-06-30T13:41:15.235Z,4465
2018-06-30T13:42:24.135Z,3960
2018-06-30T13:43:34.550Z,3925
2018-06-30T13:44:44.659Z,3980
2018-06-30T13:45:54.261Z,3690
2018-06-30T13:47:04.078Z,3615
2018-06-30T13:48:13.908Z,3875
2018-06-30T13:49:23.775Z,4060
2018-06-30T13:50:33.054Z,3930
2018-06-30T13:51:43.146Z,3785
2018-06-30T13:52:53.244Z,3790
2018-06-30T13:54:03.075Z,3700
2018-06-30T13:55:12.945Z,3585
2018-06-30T13:56:22.784Z,3700
2018-06-30T13:57:32.610Z,3500
2018-06-30T13:58:42.453Z,3340
2018-06-30T13:59:52.032Z,3320
2018-06-30T14:01:01.831Z,3415
2018-06-30T14:02:11.653Z,3560
2018-06-30T14:03:21.472Z,3705
2018-06-30T14:04:31.040Z,3775
2018-06-30T14:05:41.124Z,3840
2018-06-30T14:06:50.990Z,3735
2018-06-30T14:08:01.078Z,3580
2018-06-30T14:09:10.641Z,3780
2018-06-30T14:10:20.471Z,3865
2018-06-30T14:11:30.560Z,3725
2018-06-30T14:12:40.149Z,3800
2018-06-30T14:13:50.253Z,3835
2018-06-30T14:15:00.087Z,3645
2018-06-30T14:16:10.234Z,3650
2018-06-30T14:17:19.231Z,3500
2018-06-30T14:18:28.812Z,3560
2018-06-30T14:19:38.652Z,3675
2018-06-30T14:20:48.466Z,3670
2018-06-30T14:21:58.599Z,3695
2018-06-30T14:23:08.420Z,3655
2018-06-30T14:24:18.289Z,3735
2018-06-30T14:25:28.393Z,3460
2018-06-30T14:26:38.485Z,3245
2018-06-30T14:27:48.303Z,3405
2018-06-30T14:28:58.392Z,3330
2018-06-30T14:30:08.008Z,3330
2018-06-30T14:31:18.123Z,3400
2018-06-30T14:32:28.232Z,3415
2018-06-30T14:33:38.337Z,3375
2018-06-30T14:34:48.171Z,3385
2018-06-30T14:35:58.305Z,3245
2018-06-30T14:37:08.129Z,3340
2018-06-30T14:38:17.960Z,3390
2018-06-30T14:39:27.801Z,3335
2018-06-30T14:40:37.905Z,3355
2018-06-30T14:41:48.055Z,3465
2018-06-30T14:42:58.160Z,3275
2018-06-30T14:44:08.256Z,3160
2018-06-30T14:45:18.352Z,3245
2018-06-30T14:46:28.504Z,3235
2018-06-30T14:47:38.392Z,3200
2018-06-30T14:48:47.944Z,3355
2018-06-30T14:49:57.755Z,3340
2018-06-30T14:51:07.320Z,3190
2018-06-30T14:52:17.141Z,3200
2018-06-30T14:53:27.024Z,3210
2018-06-30T14:54:36.859Z,3195
2018-06-30T14:55:46.953Z,3075
2018-06-30T14:56:56.771Z,2985
2018-06-30T14:58:06.607Z,2930
2018-06-30T14:59:16.222Z,2835
2018-06-30T15:00:26.055Z,3065
2018-06-30T15:01:35.892Z,3140
2018-06-30T15:02:45.722Z,3025
2018-06-30T15:03:55.818Z,2900
2018-06-30T15:05:05.946Z,3135
2018-06-30T15:06:16.028Z,3210
2018-06-30T15:07:25.725Z,3175
2018-06-30T15:08:35.834Z,3155
2018-06-30T15:09:45.702Z,3030
2018-06-30T15:10:55.858Z,2945
2018-06-30T15:12:05.954Z,3015
2018-06-30T15:13:15.230Z,3040
2018-06-30T15:14:25.338Z,3125
2018-06-30T15:15:35.155Z,3195
2018-06-30T15:16:45.041Z,3105
2018-06-30T15:17:54.608Z,3170
2018-06-30T15:19:04.935Z,3180
2018-06-30T15:20:14.754Z,3170
2018-06-30T15:21:24.854Z,3235
2018-06-30T15:22:34.727Z,3160
2018-06-30T15:23:44.823Z,3130
2018-06-30T15:24:54.651Z,3170
2018-06-30T15:26:04.474Z,3120
2018-06-30T15:27:14.565Z,3015
2018-06-30T15:28:24.746Z,3125
2018-06-30T15:29:34.575Z,2940
2018-06-30T15:30:44.409Z,3000
2018-06-30T15:31:54.490Z,3170
2018-06-30T15:33:04.575Z,3075
2018-06-30T15:34:14.458Z,2900
2018-06-30T15:35:24.549Z,2960
2018-06-30T15:36:34.364Z,2935
2018-06-30T15:37:44.517Z,2780
2018-06-30T15:38:54.360Z,2840
2018-06-30T15:40:04.497Z,2970
2018-06-30T15:41:14.605Z,3025
2018-06-30T15:42:24.721Z,3050
2018-06-30T15:43:34.530Z,3030
2018-06-30T15:44:44.356Z,3020
2018-06-30T15:45:54.505Z,3055
2018-06-30T15:47:04.307Z,3015
2018-06-30T15:48:14.136Z,2915
2018-06-30T15:49:23.953Z,2835
2018-06-30T15:50:34.040Z,2905
2018-06-30T15:51:43.954Z,2905
2018-06-30T15:52:53.794Z,2890
2018-06-30T15:54:03.869Z,2815
2018-06-30T15:55:13.664Z,2775
2018-06-30T15:56:23.505Z,2790
2018-06-30T15:57:33.107Z,2755
2018-06-30T15:58:42.927Z,2765
2018-06-30T15:59:52.766Z,2775
2018-06-30T16:01:02.864Z,2820
2018-06-30T16:02:12.952Z,2785
2018-06-30T16:03:23.155Z,2805
2018-06-30T16:04:33.253Z,2825
2018-06-30T16:05:43.075Z,2840
2018-06-30T16:06:52.893Z,2830